FGEUR EDBH-EKRK
Flight info
| Callsign | FGEUR |
|---|---|
| Flight time | 0h 58m |
| Altitude | 6000 |
| Route | GASBO Q280 GESKA T59 KOR |
| Aircraft | C206/L-SFGRWY/S |
Departure
| Time | 2026-04-29 14:16 |
|---|---|
| Airport | Stralsund-Barth Airport (EDBH) |
Arrival
| Time | 2026-04-29 15:15 |
|---|---|
| Airport | Copenhagen Roskilde Airport (EKRK) |
| Time | Latitude | Longitude | Altitude | Speed | Heading |
|---|---|---|---|---|---|
| 2026-04-29 14:02 | 54.33666 | 12.71345 | 20 ft | 0 kts | 269° |
| 2026-04-29 14:15 | 54.33663 | 12.71342 | 23 ft | 0 kts | 145° |
| 2026-04-29 14:15 | 54.33681 | 12.71424 | 24 ft | 14 kts | 4° |
| 2026-04-29 14:15 | 54.33764 | 12.71413 | 24 ft | 10 kts | 358° |
| 2026-04-29 14:15 | 54.33817 | 12.71389 | 23 ft | 14 kts | 285° |
| 2026-04-29 14:16 | 54.33818 | 12.71284 | 23 ft | 18 kts | 270° |
| 2026-04-29 14:16 | 54.33820 | 12.70710 | 37 ft | 72 kts | 271° |
| 2026-04-29 14:16 | 54.33811 | 12.69835 | 340 ft | 72 kts | 278° |
| 2026-04-29 14:16 | 54.33839 | 12.68924 | 668 ft | 83 kts | 276° |
| 2026-04-29 14:17 | 54.33860 | 12.67839 | 866 ft | 98 kts | 274° |
| 2026-04-29 14:17 | 54.33875 | 12.66623 | 1092 ft | 105 kts | 273° |
| 2026-04-29 14:17 | 54.33885 | 12.65352 | 1323 ft | 108 kts | 272° |
| 2026-04-29 14:17 | 54.33889 | 12.64055 | 1547 ft | 109 kts | 272° |
| 2026-04-29 14:18 | 54.33887 | 12.62740 | 1811 ft | 112 kts | 270° |
| 2026-04-29 14:18 | 54.33896 | 12.61406 | 2039 ft | 112 kts | 273° |
| 2026-04-29 14:18 | 54.33943 | 12.60079 | 2271 ft | 111 kts | 275° |
| 2026-04-29 14:18 | 54.33997 | 12.58757 | 2528 ft | 111 kts | 274° |
| 2026-04-29 14:19 | 54.34004 | 12.57400 | 2845 ft | 115 kts | 268° |
| 2026-04-29 14:19 | 54.33950 | 12.56056 | 3069 ft | 112 kts | 265° |
| 2026-04-29 14:19 | 54.33888 | 12.54745 | 3309 ft | 109 kts | 268° |
| 2026-04-29 14:19 | 54.33877 | 12.53434 | 3569 ft | 111 kts | 274° |
| 2026-04-29 14:20 | 54.33903 | 12.52125 | 3779 ft | 109 kts | 274° |
| 2026-04-29 14:20 | 54.33902 | 12.50834 | 4002 ft | 107 kts | 266° |
| 2026-04-29 14:20 | 54.33739 | 12.49598 | 4235 ft | 106 kts | 252° |
| 2026-04-29 14:20 | 54.33446 | 12.48458 | 4459 ft | 103 kts | 244° |
| 2026-04-29 14:21 | 54.33112 | 12.47391 | 4696 ft | 100 kts | 243° |
| 2026-04-29 14:21 | 54.32793 | 12.46342 | 4933 ft | 99 kts | 245° |
| 2026-04-29 14:21 | 54.32498 | 12.45286 | 5176 ft | 98 kts | 247° |
| 2026-04-29 14:21 | 54.32213 | 12.44237 | 5411 ft | 97 kts | 248° |
| 2026-04-29 14:22 | 54.31926 | 12.43203 | 5634 ft | 96 kts | 247° |
| 2026-04-29 14:22 | 54.31631 | 12.42170 | 5841 ft | 100 kts | 246° |
| 2026-04-29 14:22 | 54.31303 | 12.41031 | 5937 ft | 114 kts | 246° |
| 2026-04-29 14:22 | 54.30932 | 12.39728 | 5978 ft | 128 kts | 246° |
| 2026-04-29 14:23 | 54.30526 | 12.38296 | 5992 ft | 138 kts | 246° |
| 2026-04-29 14:23 | 54.30091 | 12.36784 | 5997 ft | 144 kts | 245° |
| 2026-04-29 14:23 | 54.29644 | 12.35221 | 6002 ft | 148 kts | 245° |
| 2026-04-29 14:23 | 54.29195 | 12.33645 | 5995 ft | 150 kts | 245° |
| 2026-04-29 14:24 | 54.28735 | 12.32041 | 6002 ft | 150 kts | 245° |
| 2026-04-29 14:24 | 54.28275 | 12.30429 | 6001 ft | 151 kts | 245° |
| 2026-04-29 14:24 | 54.27826 | 12.28812 | 6001 ft | 149 kts | 251° |
| 2026-04-29 14:24 | 54.27898 | 12.27140 | 5999 ft | 141 kts | 305° |
| 2026-04-29 14:25 | 54.28614 | 12.26123 | 6005 ft | 133 kts | 335° |
| 2026-04-29 14:25 | 54.29429 | 12.25375 | 6006 ft | 133 kts | 339° |
| 2026-04-29 14:25 | 54.30262 | 12.24675 | 6007 ft | 133 kts | 340° |
| 2026-04-29 14:25 | 54.31116 | 12.23980 | 6006 ft | 140 kts | 340° |
| 2026-04-29 14:26 | 54.31999 | 12.23205 | 6010 ft | 145 kts | 335° |
| 2026-04-29 14:26 | 54.32871 | 12.22299 | 6007 ft | 147 kts | 334° |
| 2026-04-29 14:26 | 54.33750 | 12.21390 | 6006 ft | 148 kts | 335° |
| 2026-04-29 14:26 | 54.34641 | 12.20517 | 6008 ft | 148 kts | 336° |
| 2026-04-29 14:27 | 54.35533 | 12.19642 | 6009 ft | 148 kts | 335° |
| 2026-04-29 14:27 | 54.36420 | 12.18750 | 6008 ft | 148 kts | 335° |
| 2026-04-29 14:27 | 54.37305 | 12.17859 | 6009 ft | 147 kts | 335° |
| 2026-04-29 14:28 | 54.39077 | 12.16094 | 6007 ft | 147 kts | 335° |
| 2026-04-29 14:28 | 54.39962 | 12.15207 | 6009 ft | 147 kts | 335° |
| 2026-04-29 14:28 | 54.40845 | 12.14322 | 6009 ft | 147 kts | 335° |
| 2026-04-29 14:28 | 54.41433 | 12.13733 | 6009 ft | 147 kts | 335° |
| 2026-04-29 14:29 | 54.42317 | 12.12848 | 6008 ft | 147 kts | 335° |
| 2026-04-29 14:29 | 54.43201 | 12.11961 | 6007 ft | 147 kts | 335° |
| 2026-04-29 14:29 | 54.44082 | 12.11076 | 6008 ft | 147 kts | 335° |
| 2026-04-29 14:29 | 54.44963 | 12.10196 | 6010 ft | 147 kts | 335° |
| 2026-04-29 14:30 | 54.45844 | 12.09310 | 6010 ft | 147 kts | 335° |
| 2026-04-29 14:30 | 54.46724 | 12.08425 | 6011 ft | 146 kts | 335° |
| 2026-04-29 14:30 | 54.47608 | 12.07537 | 6012 ft | 150 kts | 335° |
| 2026-04-29 14:30 | 54.48504 | 12.06638 | 6010 ft | 147 kts | 335° |
| 2026-04-29 14:31 | 54.49364 | 12.05768 | 6008 ft | 141 kts | 335° |
| 2026-04-29 14:31 | 54.50196 | 12.04928 | 6009 ft | 137 kts | 335° |
| 2026-04-29 14:31 | 54.51012 | 12.04109 | 6010 ft | 135 kts | 336° |
| 2026-04-29 14:31 | 54.51821 | 12.03295 | 6010 ft | 134 kts | 336° |
| 2026-04-29 14:32 | 54.52625 | 12.02485 | 6014 ft | 134 kts | 335° |
| 2026-04-29 14:32 | 54.53425 | 12.01675 | 6013 ft | 133 kts | 336° |
| 2026-04-29 14:32 | 54.54225 | 12.00867 | 6013 ft | 133 kts | 336° |
| 2026-04-29 14:32 | 54.55023 | 12.00061 | 6013 ft | 133 kts | 336° |
| 2026-04-29 14:33 | 54.55820 | 11.99256 | 6013 ft | 133 kts | 335° |
| 2026-04-29 14:33 | 54.56618 | 11.98450 | 6013 ft | 133 kts | 335° |
| 2026-04-29 14:33 | 54.57416 | 11.97641 | 6017 ft | 133 kts | 335° |
| 2026-04-29 14:33 | 54.58213 | 11.96835 | 6014 ft | 133 kts | 335° |
| 2026-04-29 14:34 | 54.59012 | 11.96026 | 6014 ft | 133 kts | 335° |
| 2026-04-29 14:34 | 54.59808 | 11.95220 | 6013 ft | 133 kts | 335° |
| 2026-04-29 14:34 | 54.60605 | 11.94410 | 6016 ft | 133 kts | 335° |
| 2026-04-29 14:34 | 54.61412 | 11.93635 | 6015 ft | 131 kts | 341° |
| 2026-04-29 14:35 | 54.62255 | 11.93038 | 6014 ft | 130 kts | 345° |
| 2026-04-29 14:35 | 54.63126 | 11.92621 | 6021 ft | 130 kts | 352° |
| 2026-04-29 14:35 | 54.64011 | 11.92295 | 6009 ft | 130 kts | 352° |
| 2026-04-29 14:35 | 54.64894 | 11.91930 | 6020 ft | 131 kts | 350° |
| 2026-04-29 14:36 | 54.65776 | 11.91532 | 6015 ft | 131 kts | 350° |
| 2026-04-29 14:36 | 54.66657 | 11.91144 | 6010 ft | 130 kts | 351° |
| 2026-04-29 14:36 | 54.67537 | 11.90773 | 6012 ft | 130 kts | 351° |
| 2026-04-29 14:36 | 54.68415 | 11.90403 | 6013 ft | 130 kts | 351° |
| 2026-04-29 14:37 | 54.69279 | 11.90031 | 6015 ft | 130 kts | 350° |
| 2026-04-29 14:37 | 54.70155 | 11.89651 | 6017 ft | 130 kts | 350° |
| 2026-04-29 14:37 | 54.71040 | 11.89273 | 6009 ft | 132 kts | 350° |
| 2026-04-29 14:37 | 54.71936 | 11.88889 | 6009 ft | 133 kts | 350° |
| 2026-04-29 14:38 | 54.72841 | 11.88500 | 6022 ft | 135 kts | 350° |
| 2026-04-29 14:38 | 54.73758 | 11.88104 | 6016 ft | 136 kts | 350° |
| 2026-04-29 14:38 | 54.74681 | 11.87710 | 6013 ft | 137 kts | 350° |
| 2026-04-29 14:38 | 54.75603 | 11.87313 | 6009 ft | 136 kts | 349° |
| 2026-04-29 14:39 | 54.76520 | 11.86917 | 6016 ft | 136 kts | 350° |
| 2026-04-29 14:39 | 54.77442 | 11.86519 | 6024 ft | 137 kts | 350° |
| 2026-04-29 14:39 | 54.78369 | 11.86121 | 6020 ft | 138 kts | 350° |
| 2026-04-29 14:39 | 54.79305 | 11.85721 | 6009 ft | 138 kts | 350° |
| 2026-04-29 14:40 | 54.80231 | 11.85319 | 6022 ft | 138 kts | 350° |
| 2026-04-29 14:40 | 54.81159 | 11.84916 | 6024 ft | 137 kts | 350° |
| 2026-04-29 14:40 | 54.82087 | 11.84517 | 6021 ft | 137 kts | 350° |
| 2026-04-29 14:40 | 54.83017 | 11.84121 | 6021 ft | 137 kts | 350° |
| 2026-04-29 14:41 | 54.83943 | 11.83718 | 6011 ft | 137 kts | 349° |
| 2026-04-29 14:41 | 54.84864 | 11.83318 | 6011 ft | 136 kts | 349° |
| 2026-04-29 14:41 | 54.85777 | 11.82925 | 6004 ft | 135 kts | 349° |
| 2026-04-29 14:41 | 54.86689 | 11.82529 | 6013 ft | 135 kts | 349° |
| 2026-04-29 14:42 | 54.87603 | 11.82130 | 6021 ft | 136 kts | 349° |
| 2026-04-29 14:42 | 54.88520 | 11.81738 | 6020 ft | 136 kts | 350° |
| 2026-04-29 14:42 | 54.89431 | 11.81348 | 6016 ft | 137 kts | 349° |
| 2026-04-29 14:42 | 54.90357 | 11.80944 | 6007 ft | 137 kts | 349° |
| 2026-04-29 14:43 | 54.91281 | 11.80538 | 6012 ft | 137 kts | 349° |
| 2026-04-29 14:43 | 54.92204 | 11.80136 | 6005 ft | 136 kts | 349° |
| 2026-04-29 14:43 | 54.93126 | 11.79742 | 6017 ft | 137 kts | 349° |
| 2026-04-29 14:43 | 54.94044 | 11.79346 | 6008 ft | 136 kts | 349° |
| 2026-04-29 14:44 | 54.94965 | 11.78940 | 6024 ft | 137 kts | 349° |
| 2026-04-29 14:44 | 54.95883 | 11.78544 | 6006 ft | 135 kts | 349° |
| 2026-04-29 14:44 | 54.96785 | 11.78152 | 6002 ft | 133 kts | 349° |
| 2026-04-29 14:44 | 54.97676 | 11.77763 | 6004 ft | 131 kts | 349° |
| 2026-04-29 14:45 | 54.98560 | 11.77379 | 6008 ft | 131 kts | 349° |
| 2026-04-29 14:45 | 54.99444 | 11.76993 | 6010 ft | 131 kts | 349° |
| 2026-04-29 14:45 | 55.00326 | 11.76610 | 6014 ft | 131 kts | 349° |
| 2026-04-29 14:45 | 55.01210 | 11.76227 | 6011 ft | 131 kts | 349° |
| 2026-04-29 14:46 | 55.02091 | 11.75841 | 6011 ft | 131 kts | 349° |
| 2026-04-29 14:46 | 55.02973 | 11.75457 | 6012 ft | 130 kts | 349° |
| 2026-04-29 14:46 | 55.03853 | 11.75073 | 6013 ft | 130 kts | 349° |
| 2026-04-29 14:46 | 55.04732 | 11.74689 | 6013 ft | 130 kts | 349° |
| 2026-04-29 14:47 | 55.05612 | 11.74303 | 6017 ft | 130 kts | 349° |
| 2026-04-29 14:47 | 55.06495 | 11.73917 | 6023 ft | 131 kts | 349° |
| 2026-04-29 14:47 | 55.07382 | 11.73532 | 6014 ft | 131 kts | 349° |
| 2026-04-29 14:47 | 55.08266 | 11.73145 | 6017 ft | 131 kts | 349° |
| 2026-04-29 14:48 | 55.09151 | 11.72756 | 6011 ft | 131 kts | 349° |
| 2026-04-29 14:48 | 55.10033 | 11.72372 | 6011 ft | 131 kts | 349° |
| 2026-04-29 14:48 | 55.10845 | 11.71696 | 6011 ft | 134 kts | 322° |
| 2026-04-29 14:48 | 55.11515 | 11.70565 | 6015 ft | 135 kts | 321° |
| 2026-04-29 14:49 | 55.12157 | 11.69358 | 6013 ft | 137 kts | 315° |
| 2026-04-29 14:49 | 55.12735 | 11.68029 | 6014 ft | 138 kts | 312° |
| 2026-04-29 14:49 | 55.13311 | 11.66691 | 6012 ft | 138 kts | 314° |
| 2026-04-29 14:49 | 55.13908 | 11.65384 | 6014 ft | 138 kts | 315° |
| 2026-04-29 14:50 | 55.14502 | 11.64097 | 6013 ft | 138 kts | 314° |
| 2026-04-29 14:50 | 55.15095 | 11.62778 | 6013 ft | 138 kts | 314° |
| 2026-04-29 14:50 | 55.15686 | 11.61450 | 6014 ft | 138 kts | 314° |
| 2026-04-29 14:50 | 55.16279 | 11.60128 | 6013 ft | 138 kts | 314° |
| 2026-04-29 14:51 | 55.16875 | 11.58810 | 6017 ft | 138 kts | 314° |
| 2026-04-29 14:51 | 55.17469 | 11.57490 | 6011 ft | 138 kts | 314° |
| 2026-04-29 14:51 | 55.18063 | 11.56165 | 6014 ft | 138 kts | 314° |
| 2026-04-29 14:51 | 55.18656 | 11.54843 | 6013 ft | 138 kts | 314° |
| 2026-04-29 14:52 | 55.19249 | 11.53522 | 6015 ft | 138 kts | 314° |
| 2026-04-29 14:52 | 55.19842 | 11.52199 | 6027 ft | 138 kts | 314° |
| 2026-04-29 14:52 | 55.20439 | 11.50867 | 6041 ft | 141 kts | 313° |
| 2026-04-29 14:52 | 55.21045 | 11.49512 | 6033 ft | 142 kts | 314° |
| 2026-04-29 14:53 | 55.21653 | 11.48151 | 6010 ft | 141 kts | 313° |
| 2026-04-29 14:53 | 55.22258 | 11.46803 | 6015 ft | 140 kts | 314° |
| 2026-04-29 14:53 | 55.22861 | 11.45457 | 6014 ft | 140 kts | 314° |
| 2026-04-29 14:53 | 55.23464 | 11.44104 | 6012 ft | 141 kts | 313° |
| 2026-04-29 14:54 | 55.24066 | 11.42751 | 6013 ft | 141 kts | 313° |
| 2026-04-29 14:54 | 55.24670 | 11.41402 | 6003 ft | 141 kts | 313° |
| 2026-04-29 14:54 | 55.25269 | 11.40061 | 6000 ft | 139 kts | 313° |
| 2026-04-29 14:54 | 55.25861 | 11.38726 | 6010 ft | 139 kts | 313° |
| 2026-04-29 14:55 | 55.26478 | 11.37405 | 6018 ft | 139 kts | 322° |
| 2026-04-29 14:55 | 55.27357 | 11.37031 | 6013 ft | 134 kts | 17° |
| 2026-04-29 14:55 | 55.28105 | 11.37983 | 6014 ft | 134 kts | 41° |
| 2026-04-29 14:55 | 55.28768 | 11.39130 | 6017 ft | 134 kts | 43° |
| 2026-04-29 14:56 | 55.29424 | 11.40321 | 6027 ft | 137 kts | 44° |
| 2026-04-29 14:56 | 55.30083 | 11.41535 | 6006 ft | 137 kts | 44° |
| 2026-04-29 14:56 | 55.30749 | 11.42727 | 6008 ft | 136 kts | 41° |
| 2026-04-29 14:56 | 55.31461 | 11.43822 | 6017 ft | 137 kts | 38° |
| 2026-04-29 14:57 | 55.32189 | 11.44900 | 6021 ft | 137 kts | 39° |
| 2026-04-29 14:57 | 55.32908 | 11.46014 | 6014 ft | 138 kts | 40° |
| 2026-04-29 14:57 | 55.33618 | 11.47134 | 6004 ft | 137 kts | 40° |
| 2026-04-29 14:57 | 55.34327 | 11.48230 | 6009 ft | 135 kts | 40° |
| 2026-04-29 14:58 | 55.35039 | 11.49328 | 6019 ft | 137 kts | 39° |
| 2026-04-29 14:58 | 55.35757 | 11.50440 | 6024 ft | 138 kts | 40° |
| 2026-04-29 14:58 | 55.36478 | 11.51553 | 6003 ft | 137 kts | 40° |
| 2026-04-29 14:58 | 55.37192 | 11.52665 | 6004 ft | 137 kts | 40° |
| 2026-04-29 14:59 | 55.37903 | 11.53778 | 6014 ft | 137 kts | 39° |
| 2026-04-29 14:59 | 55.38624 | 11.54884 | 6028 ft | 138 kts | 39° |
| 2026-04-29 14:59 | 55.39337 | 11.55989 | 6022 ft | 139 kts | 39° |
| 2026-04-29 14:59 | 55.40058 | 11.57116 | 6024 ft | 139 kts | 40° |
| 2026-04-29 15:00 | 55.40789 | 11.58256 | 6000 ft | 138 kts | 40° |
| 2026-04-29 15:00 | 55.41492 | 11.59348 | 6004 ft | 136 kts | 39° |
| 2026-04-29 15:00 | 55.42194 | 11.60440 | 6008 ft | 133 kts | 39° |
| 2026-04-29 15:00 | 55.42881 | 11.61511 | 6011 ft | 131 kts | 39° |
| 2026-04-29 15:01 | 55.43569 | 11.62573 | 6022 ft | 131 kts | 39° |
| 2026-04-29 15:01 | 55.44249 | 11.63649 | 6023 ft | 132 kts | 41° |
| 2026-04-29 15:01 | 55.44894 | 11.64814 | 6027 ft | 133 kts | 44° |
| 2026-04-29 15:01 | 55.45535 | 11.65987 | 6006 ft | 132 kts | 43° |
| 2026-04-29 15:02 | 55.46187 | 11.67127 | 6021 ft | 132 kts | 42° |
| 2026-04-29 15:02 | 55.46845 | 11.68268 | 6009 ft | 133 kts | 42° |
| 2026-04-29 15:02 | 55.47503 | 11.69427 | 5933 ft | 136 kts | 43° |
| 2026-04-29 15:02 | 55.48173 | 11.70616 | 5758 ft | 136 kts | 43° |
| 2026-04-29 15:03 | 55.48841 | 11.71800 | 5582 ft | 136 kts | 43° |
| 2026-04-29 15:03 | 55.49513 | 11.72988 | 5412 ft | 137 kts | 43° |
| 2026-04-29 15:03 | 55.50189 | 11.74177 | 5228 ft | 137 kts | 42° |
| 2026-04-29 15:03 | 55.50862 | 11.75362 | 5028 ft | 136 kts | 43° |
| 2026-04-29 15:04 | 55.51525 | 11.76547 | 4836 ft | 135 kts | 42° |
| 2026-04-29 15:04 | 55.52192 | 11.77724 | 4668 ft | 136 kts | 42° |
| 2026-04-29 15:04 | 55.52855 | 11.78888 | 4500 ft | 136 kts | 42° |
| 2026-04-29 15:04 | 55.53519 | 11.80065 | 4298 ft | 135 kts | 42° |
| 2026-04-29 15:05 | 55.54189 | 11.81259 | 4119 ft | 135 kts | 42° |
| 2026-04-29 15:05 | 55.54843 | 11.82418 | 3940 ft | 135 kts | 41° |
| 2026-04-29 15:05 | 55.55508 | 11.83592 | 3770 ft | 136 kts | 41° |
| 2026-04-29 15:05 | 55.56179 | 11.84785 | 3598 ft | 138 kts | 41° |
| 2026-04-29 15:06 | 55.56852 | 11.85989 | 3407 ft | 139 kts | 41° |
| 2026-04-29 15:06 | 55.57535 | 11.87204 | 3227 ft | 141 kts | 43° |
| 2026-04-29 15:06 | 55.58221 | 11.88427 | 3113 ft | 139 kts | 41° |
| 2026-04-29 15:06 | 55.58897 | 11.89612 | 3057 ft | 135 kts | 42° |
| 2026-04-29 15:07 | 55.59658 | 11.90361 | 3036 ft | 124 kts | 357° |
| 2026-04-29 15:07 | 55.60341 | 11.89576 | 3033 ft | 125 kts | 299° |
| 2026-04-29 15:07 | 55.60712 | 11.88202 | 3023 ft | 123 kts | 305° |
| 2026-04-29 15:07 | 55.61154 | 11.86912 | 2974 ft | 126 kts | 303° |
| 2026-04-29 15:08 | 55.61809 | 11.85945 | 2860 ft | 129 kts | 348° |
| 2026-04-29 15:08 | 55.62634 | 11.86483 | 2738 ft | 137 kts | 44° |
| 2026-04-29 15:08 | 55.63191 | 11.87894 | 2641 ft | 142 kts | 53° |
| 2026-04-29 15:08 | 55.63709 | 11.89395 | 2514 ft | 143 kts | 54° |
| 2026-04-29 15:09 | 55.64213 | 11.90923 | 2393 ft | 145 kts | 63° |
| 2026-04-29 15:09 | 55.64222 | 11.92725 | 2266 ft | 151 kts | 96° |
| 2026-04-29 15:09 | 55.63837 | 11.94467 | 2146 ft | 153 kts | 113° |
| 2026-04-29 15:09 | 55.63342 | 11.96120 | 2068 ft | 150 kts | 116° |
| 2026-04-29 15:10 | 55.62858 | 11.97730 | 1975 ft | 144 kts | 114° |
| 2026-04-29 15:10 | 55.62457 | 11.99174 | 1795 ft | 121 kts | 111° |
| 2026-04-29 15:10 | 55.62109 | 12.00467 | 1646 ft | 112 kts | 110° |
| 2026-04-29 15:10 | 55.61783 | 12.01686 | 1538 ft | 106 kts | 113° |
| 2026-04-29 15:11 | 55.61470 | 12.02803 | 1561 ft | 101 kts | 111° |
| 2026-04-29 15:11 | 55.61153 | 12.03988 | 1533 ft | 111 kts | 110° |
| 2026-04-29 15:11 | 55.60774 | 12.05152 | 1457 ft | 100 kts | 116° |
| 2026-04-29 15:11 | 55.60451 | 12.06206 | 1422 ft | 96 kts | 118° |
| 2026-04-29 15:12 | 55.59973 | 12.07063 | 1342 ft | 98 kts | 134° |
| 2026-04-29 15:12 | 55.59675 | 12.07663 | 1293 ft | 100 kts | 126° |
| 2026-04-29 15:12 | 55.59029 | 12.08911 | 1146 ft | 102 kts | 136° |
| 2026-04-29 15:12 | 55.58571 | 12.09750 | 1106 ft | 93 kts | 121° |
| 2026-04-29 15:13 | 55.58205 | 12.10687 | 1010 ft | 95 kts | 123° |
| 2026-04-29 15:13 | 55.57844 | 12.11655 | 988 ft | 91 kts | 117° |
| 2026-04-29 15:13 | 55.57523 | 12.12642 | 876 ft | 98 kts | 115° |
| 2026-04-29 15:13 | 55.57200 | 12.13695 | 809 ft | 91 kts | 115° |
| 2026-04-29 15:14 | 55.56957 | 12.14676 | 632 ft | 83 kts | 76° |
| 2026-04-29 15:14 | 55.57230 | 12.15439 | 513 ft | 67 kts | 14° |
| 2026-04-29 15:14 | 55.57678 | 12.15366 | 464 ft | 69 kts | 353° |
| 2026-04-29 15:14 | 55.58056 | 12.14867 | 377 ft | 79 kts | 305° |
| 2026-04-29 15:15 | 55.58315 | 12.13966 | 211 ft | 77 kts | 303° |
| 2026-04-29 15:15 | 55.58526 | 12.13255 | 144 ft | 52 kts | 297° |
| 2026-04-29 15:15 | 55.58623 | 12.12937 | 142 ft | 13 kts | 309° |
| 2026-04-29 15:15 | 55.58691 | 12.12951 | 142 ft | 10 kts | 28° |
| 2026-04-29 15:16 | 55.58737 | 12.13006 | 143 ft | 6 kts | 33° |
| 2026-04-29 15:16 | 55.58826 | 12.13002 | 143 ft | 19 kts | 4° |
| 2026-04-29 15:16 | 55.58929 | 12.13000 | 144 ft | 17 kts | 298° |
| 2026-04-29 15:16 | 55.58957 | 12.12811 | 145 ft | 14 kts | 172° |
| 2026-04-29 15:17 | 55.58947 | 12.12815 | 145 ft | 0 kts | 167° |